Ormi — HPDQ — position and weather

sailwx.info

Track history (hours):
 
Tides and Currents Weather Stations Pressure Air Temp Water Temp Dewpoint Dewpoint Depression Visibility Wind Speed Wind Dir Waves Ship Positions

Ormi

Last reported at 2018-Jun-18 17:52 UTC. Time now 2018-Jun-20 07:50 UTC.
Position N 35°59' E 000°03'.

Length 151 m; draft 8.2 m.

Type: Cargo ship. MMSI: 351931000.

Date/timePositionNaut miles runAvg speedWind from/ knotsBaromVisibWave heightAir tempDewpointWater temp
2018-Jun-18 17:52N 35°59' E 000°03'0 0.0
2018-Jun-18 16:22N 35°59' E 000°03'0 0.0
2018-Jun-18 15:46N 35°59' E 000°03'0 0.0
2018-Jun-18 15:19N 35°59' E 000°03'0 0.0
2018-Jun-18 14:52N 35°59' E 000°03'0 0.0
2018-Jun-18 14:22N 35°59' E 000°03'0 0.0
2018-Jun-18 11:25N 35°59' E 000°03'0 0.1
2018-Jun-18 10:04N 35°59' E 000°03'0 0.0
2018-Jun-17 18:16N 35°59' E 000°03'0 0.0
2018-Jun-16 22:45N 35°59' E 000°03'0 0.0
2018-Jun-16 22:27N 35°59' E 000°03'0 0.0
2018-Jun-16 21:27N 35°59' E 000°03'0 0.0
2018-Jun-16 20:57N 35°59' E 000°03'0 0.0
2018-Jun-16 20:21N 35°59' E 000°03'0 0.0
2018-Jun-16 19:51N 35°59' E 000°03'0 0.0
2018-Jun-16 19:27N 35°59' E 000°03'0 0.0
2018-Jun-16 16:55N 35°59' E 000°03'0 0.0
2018-Jun-16 15:55N 35°59' E 000°03'0 0.0
2018-Jun-16 15:25N 35°59' E 000°03'0 0.0
2018-Jun-16 14:43N 35°59' E 000°03'0 0.0
2018-Jun-16 14:13N 35°59' E 000°03'0 0.0
2018-Jun-16 13:40N 35°59' E 000°03'0 0.0
2018-Jun-16 13:16N 35°59' E 000°03'0 0.0
2018-Jun-16 08:31N 35°59' E 000°03'0 0.0
2018-Jun-16 08:19N 35°59' E 000°03'0 0.0
2018-Jun-16 07:55N 35°59' E 000°03'0 0.0
2018-Jun-16 05:43N 35°59' E 000°03'0 0.0
2018-Jun-16 05:25N 35°59' E 000°03'0 0.0
2018-Jun-16 03:13N 35°59' E 000°03'0 0.0
2018-Jun-16 02:55N 35°59' E 000°03'0 0.0
2018-Jun-16 00:19N 35°59' E 000°03'0 0.0
2018-Jun-15 14:01N 35°59' E 000°03'0 0.1
2018-Jun-15 13:55N 35°59' E 000°03'0 0.0
2018-Jun-15 13:25N 35°59' E 000°03'32 1.0
2018-Jun-14 03:42N 36°25' E 000°26'1 6.1
2018-Jun-14 03:29N 36°26' E 000°27'3 6.1
2018-Jun-14 03:00N 36°28' E 000°29'3 6.2
2018-Jun-14 02:30N 36°31' E 000°31'4 6.3
2018-Jun-14 01:49N 36°34' E 000°35'9 6.2
2018-Jun-14 00:20N 36°36' E 000°46'2 6.2
2018-Jun-13 23:59N 36°37' E 000°49'3 6.2
2018-Jun-13 23:29N 36°38' E 000°52'3 6.3
2018-Jun-13 22:58N 36°40' E 000°56'3 6.4
2018-Jun-13 22:27N 36°41' E 000°59'8 6.2
2018-Jun-13 21:12N 36°44' E 001°08'1 6.2
2018-Jun-13 21:00N 36°45' E 001°10'6 6.2
2018-Jun-13 19:59N 36°47' E 001°17'124 6.2
2018-Jun-12 23:48N 37°16' E 003°49'  
2018-Jun-10 07:40N 37°00' E 012°56'2 7.4
2018-Jun-10 07:23N 36°60' E 012°59'3 7.4
2018-Jun-10 06:58N 36°58' E 013°02'5 7.4
2018-Jun-10 06:22N 36°56' E 013°07'3 7.4
2018-Jun-10 06:00N 36°55' E 013°10'4 7.4
2018-Jun-10 05:30N 36°54' E 013°14'10 7.3
2018-Jun-10 04:07N 36°50' E 013°26'1 7.3
2018-Jun-10 04:00N 36°50' E 013°27'4 7.2
2018-Jun-10 03:30N 36°48' E 013°31'4 7.0
2018-Jun-10 03:00N 36°46' E 013°35'3 6.5
2018-Jun-10 02:28N 36°45' E 013°39'3 6.6
2018-Jun-10 01:59N 36°43' E 013°42'4 6.6
2018-Jun-10 01:24N 36°42' E 013°47'3 6.7
2018-Jun-10 01:00N 36°41' E 013°50'3 6.9
2018-Jun-10 00:30N 36°39' E 013°54'4 6.9
2018-Jun-09 23:59N 36°38' E 013°58'3 7.0
2018-Jun-09 23:30N 36°36' E 014°02'3 6.9
2018-Jun-09 23:00N 36°35' E 014°06'3 6.9
2018-Jun-09 22:30N 36°34' E 014°10'3 6.9
2018-Jun-09 22:00N 36°32' E 014°13'4 7.2
2018-Jun-09 21:30N 36°30' E 014°17'3 6.9
2018-Jun-09 21:00N 36°29' E 014°21'3 6.9
2018-Jun-09 20:30N 36°28' E 014°25'3 6.9
2018-Jun-09 20:00N 36°26' E 014°29'3 6.8
2018-Jun-09 19:29N 36°25' E 014°33'3 6.5
2018-Jun-09 19:00N 36°23' E 014°37'3 6.2
2018-Jun-09 18:30N 36°22' E 014°40'3 6.0
2018-Jun-09 17:59N 36°21' E 014°43'3 5.9
2018-Jun-09 17:27N 36°19' E 014°47'10 5.5
2018-Jun-09 15:39N 36°16' E 014°58'1 5.3
2018-Jun-09 15:30N 36°15' E 014°59'  
Track history (hours):
 
Tides and Currents Weather Stations Pressure Air Temp Water Temp Dewpoint Dewpoint Depression Visibility Wind Speed Wind Dir Waves Ship Positions

Ormi

Last reported at 2018-Jun-18 17:52 UTC. Time now 2018-Jun-20 07:50 UTC.
Position N 35°59' E 000°03'.

Length 151 m; draft 8.2 m.

Type: Cargo ship. MMSI: 351931000.

Date/timePositionNaut miles runAvg speedWind from/ knotsBaromVisibWave heightAir tempDewpointWater temp
2018-Jun-18 17:52N 35°59' E 000°03'0 0.0
2018-Jun-18 16:22N 35°59' E 000°03'0 0.0
2018-Jun-18 15:46N 35°59' E 000°03'0 0.0
2018-Jun-18 15:19N 35°59' E 000°03'0 0.0
2018-Jun-18 14:52N 35°59' E 000°03'0 0.0
2018-Jun-18 14:22N 35°59' E 000°03'0 0.0
2018-Jun-18 11:25N 35°59' E 000°03'0 0.1
2018-Jun-18 10:04N 35°59' E 000°03'0 0.0
2018-Jun-17 18:16N 35°59' E 000°03'0 0.0
2018-Jun-16 22:45N 35°59' E 000°03'0 0.0
2018-Jun-16 22:27N 35°59' E 000°03'0 0.0
2018-Jun-16 21:27N 35°59' E 000°03'0 0.0
2018-Jun-16 20:57N 35°59' E 000°03'0 0.0
2018-Jun-16 20:21N 35°59' E 000°03'0 0.0
2018-Jun-16 19:51N 35°59' E 000°03'0 0.0
2018-Jun-16 19:27N 35°59' E 000°03'0 0.0
2018-Jun-16 16:55N 35°59' E 000°03'0 0.0
2018-Jun-16 15:55N 35°59' E 000°03'0 0.0
2018-Jun-16 15:25N 35°59' E 000°03'0 0.0
2018-Jun-16 14:43N 35°59' E 000°03'0 0.0
2018-Jun-16 14:13N 35°59' E 000°03'0 0.0
2018-Jun-16 13:40N 35°59' E 000°03'0 0.0
2018-Jun-16 13:16N 35°59' E 000°03'0 0.0
2018-Jun-16 08:31N 35°59' E 000°03'0 0.0
2018-Jun-16 08:19N 35°59' E 000°03'0 0.0
2018-Jun-16 07:55N 35°59' E 000°03'0 0.0
2018-Jun-16 05:43N 35°59' E 000°03'0 0.0
2018-Jun-16 05:25N 35°59' E 000°03'0 0.0
2018-Jun-16 03:13N 35°59' E 000°03'0 0.0
2018-Jun-16 02:55N 35°59' E 000°03'0 0.0
2018-Jun-16 00:19N 35°59' E 000°03'0 0.0
2018-Jun-15 14:01N 35°59' E 000°03'0 0.1
2018-Jun-15 13:55N 35°59' E 000°03'0 0.0
2018-Jun-15 13:25N 35°59' E 000°03'32 1.0
2018-Jun-14 03:42N 36°25' E 000°26'1 6.1
2018-Jun-14 03:29N 36°26' E 000°27'3 6.1
2018-Jun-14 03:00N 36°28' E 000°29'3 6.2
2018-Jun-14 02:30N 36°31' E 000°31'4 6.3
2018-Jun-14 01:49N 36°34' E 000°35'9 6.2
2018-Jun-14 00:20N 36°36' E 000°46'2 6.2
2018-Jun-13 23:59N 36°37' E 000°49'3 6.2
2018-Jun-13 23:29N 36°38' E 000°52'3 6.3
2018-Jun-13 22:58N 36°40' E 000°56'3 6.4
2018-Jun-13 22:27N 36°41' E 000°59'8 6.2
2018-Jun-13 21:12N 36°44' E 001°08'1 6.2
2018-Jun-13 21:00N 36°45' E 001°10'6 6.2
2018-Jun-13 19:59N 36°47' E 001°17'124 6.2
2018-Jun-12 23:48N 37°16' E 003°49'  
2018-Jun-10 07:40N 37°00' E 012°56'2 7.4
2018-Jun-10 07:23N 36°60' E 012°59'3 7.4
2018-Jun-10 06:58N 36°58' E 013°02'5 7.4
2018-Jun-10 06:22N 36°56' E 013°07'3 7.4
2018-Jun-10 06:00N 36°55' E 013°10'4 7.4
2018-Jun-10 05:30N 36°54' E 013°14'10 7.3
2018-Jun-10 04:07N 36°50' E 013°26'1 7.3
2018-Jun-10 04:00N 36°50' E 013°27'4 7.2
2018-Jun-10 03:30N 36°48' E 013°31'4 7.0
2018-Jun-10 03:00N 36°46' E 013°35'3 6.5
2018-Jun-10 02:28N 36°45' E 013°39'3 6.6
2018-Jun-10 01:59N 36°43' E 013°42'4 6.6
2018-Jun-10 01:24N 36°42' E 013°47'3 6.7
2018-Jun-10 01:00N 36°41' E 013°50'3 6.9
2018-Jun-10 00:30N 36°39' E 013°54'4 6.9
2018-Jun-09 23:59N 36°38' E 013°58'3 7.0
2018-Jun-09 23:30N 36°36' E 014°02'3 6.9
2018-Jun-09 23:00N 36°35' E 014°06'3 6.9
2018-Jun-09 22:30N 36°34' E 014°10'3 6.9
2018-Jun-09 22:00N 36°32' E 014°13'4 7.2
2018-Jun-09 21:30N 36°30' E 014°17'3 6.9
2018-Jun-09 21:00N 36°29' E 014°21'3 6.9
2018-Jun-09 20:30N 36°28' E 014°25'3 6.9
2018-Jun-09 20:00N 36°26' E 014°29'3 6.8
2018-Jun-09 19:29N 36°25' E 014°33'3 6.5
2018-Jun-09 19:00N 36°23' E 014°37'3 6.2
2018-Jun-09 18:30N 36°22' E 014°40'3 6.0
2018-Jun-09 17:59N 36°21' E 014°43'3 5.9
2018-Jun-09 17:27N 36°19' E 014°47'10 5.5
2018-Jun-09 15:39N 36°16' E 014°58'1 5.3
2018-Jun-09 15:30N 36°15' E 014°59'  

Dump ship's entire track history